Costa Magica — IBQQ — position and weather

sailwx.info

Track history (hours):
 
Tides and Currents Weather Stations Pressure Air Temp Water Temp Dewpoint Dewpoint Depression Visibility Wind Speed Wind Dir Waves Ship Positions

Costa Magica

Last reported at 2017-Jun-22 18:39 UTC. Time now 2017-Jun-25 08:39 UTC.
Position N 68°18' E 012°21'.

Type: Ship. MMSI: 247113300.

Date/timePositionNaut miles runAvg speedWind from/ knotsBaromVisibWave heightAir tempDewpointWater temp
2017-Jun-22 18:39N 68°18' E 012°21'318.2
2017-Jun-22 18:30N 68°15' E 012°20'918.1
2017-Jun-22 18:00N 68°06' E 012°18'917.5
2017-Jun-22 17:30N 67°58' E 012°26'918.5
2017-Jun-22 17:00N 67°50' E 012°41'815.6
2017-Jun-22 16:30N 67°50' E 013°01'918.5
2017-Jun-22 16:00N 67°56' E 013°20'917.5
2017-Jun-22 15:30N 68°03' E 013°35'4 7.9
2017-Jun-22 15:00N 68°07' E 013°36'0 0.1
2017-Jun-22 13:55N 68°07' E 013°36'0 0.0
2017-Jun-22 13:25N 68°07' E 013°36'0 0.0
2017-Jun-22 12:58N 68°07' E 013°36'0 0.0
2017-Jun-22 12:22N 68°07' E 013°36'0 0.0
2017-Jun-22 12:01N 68°07' E 013°36'0 0.0
2017-Jun-22 11:30N 68°07' E 013°36'0 0.0
2017-Jun-22 11:00N 68°07' E 013°36'0 0.0
2017-Jun-22 10:31N 68°07' E 013°36'0 0.0
2017-Jun-22 10:00N 68°07' E 013°36'0 0.1
2017-Jun-22 09:30N 68°07' E 013°36'0 0.0
2017-Jun-22 09:00N 68°07' E 013°36'0 0.0
2017-Jun-22 08:29N 68°07' E 013°36'0 0.0
2017-Jun-22 08:00N 68°07' E 013°36'0 0.0
2017-Jun-22 07:30N 68°07' E 013°36'0 0.1
2017-Jun-22 06:59N 68°07' E 013°36'0 0.1
2017-Jun-22 06:30N 68°07' E 013°36'0 0.2
2017-Jun-22 06:00N 68°07' E 013°36'0 0.1
2017-Jun-22 05:30N 68°07' E 013°36'0 0.1
2017-Jun-22 05:00N 68°07' E 013°36'0 0.1
2017-Jun-22 04:30N 68°07' E 013°36'4 8.9
2017-Jun-22 04:00N 68°02' E 013°35'5 8.9
2017-Jun-22 03:30N 67°58' E 013°32'4 7.5
2017-Jun-22 03:00N 67°54' E 013°30'510.8
2017-Jun-22 02:30N 67°49' E 013°25'511.2
2017-Jun-22 02:00N 67°45' E 013°17'611.4
2017-Jun-22 01:30N 67°40' E 013°08'611.6
2017-Jun-22 01:00N 67°35' E 012°59'611.5
2017-Jun-22 00:30N 67°30' E 012°50'611.3
2017-Jun-22 00:00N 67°26' E 012°41'4010.5
2017-Jun-21 20:12N 66°53' E 011°41'310.3
2017-Jun-21 19:52N 66°51' E 011°37'410.0
2017-Jun-21 19:30N 66°47' E 011°32'5 9.6
2017-Jun-21 19:01N 66°43' E 011°26'5 9.6
2017-Jun-21 18:30N 66°39' E 011°20'5 9.7
2017-Jun-21 18:00N 66°35' E 011°13'5 9.8
2017-Jun-21 17:28N 66°30' E 011°07'5 9.8
2017-Jun-21 16:58N 66°26' E 011°00'18410.7
2017-Jun-20 23:44N 63°45' E 007°31'411.0
2017-Jun-20 23:20N 63°41' E 007°28'411.1
2017-Jun-20 22:59N 63°37' E 007°27'511.2
2017-Jun-20 22:30N 63°32' E 007°29'611.4
2017-Jun-20 22:01N 63°26' E 007°31'611.3
2017-Jun-20 21:30N 63°21' E 007°33'510.6
2017-Jun-20 21:00N 63°16' E 007°38'2 3.3
2017-Jun-20 20:30N 63°14' E 007°39'713.7
2017-Jun-20 20:00N 63°13' E 007°24'917.9
2017-Jun-20 19:30N 63°09' E 007°06'917.1
2017-Jun-20 19:00N 63°03' E 006°52'815.9
2017-Jun-20 18:30N 62°55' E 006°50'713.6
2017-Jun-20 18:01N 62°49' E 006°58'712.8
2017-Jun-20 17:30N 62°43' E 007°00'510.2
2017-Jun-20 17:00N 62°44' E 007°11'0 0.1
2017-Jun-20 16:30N 62°44' E 007°11'0 0.0
2017-Jun-20 16:00N 62°44' E 007°11'0 0.0
2017-Jun-20 15:30N 62°44' E 007°11'0 0.0
2017-Jun-20 15:00N 62°44' E 007°11'0 0.0
2017-Jun-20 14:30N 62°44' E 007°11'0 0.0
2017-Jun-20 13:30N 62°44' E 007°11'0 0.0
2017-Jun-20 13:00N 62°44' E 007°11'0 0.0
2017-Jun-20 12:30N 62°44' E 007°11'0 0.0
2017-Jun-20 12:00N 62°44' E 007°11'0 0.0
2017-Jun-20 11:30N 62°44' E 007°11'0 0.0
2017-Jun-20 11:00N 62°44' E 007°11'0 0.0
2017-Jun-20 10:30N 62°44' E 007°11'2 4.6
2017-Jun-20 10:00N 62°44' E 007°06'815.0
2017-Jun-20 09:30N 62°41' E 006°51'917.7
2017-Jun-20 09:00N 62°38' E 006°33'815.7
2017-Jun-20 08:30N 62°37' E 006°16'4 7.7
2017-Jun-20 08:00N 62°37' E 006°08'713.2
2017-Jun-20 07:30N 62°30' E 006°09'510.0
2017-Jun-20 07:00N 62°27' E 006°00'5 9.5
2017-Jun-20 06:30N 62°28' E 005°50'612.7
2017-Jun-20 06:00N 62°30' E 005°37'713.6
2017-Jun-20 05:30N 62°28' E 005°23'713.6
2017-Jun-20 05:00N 62°24' E 005°11'815.8
2017-Jun-20 04:30N 62°19' E 004°58'918.1
2017-Jun-20 04:00N 62°13' E 004°43'918.0
2017-Jun-20 03:30N 62°07' E 004°29'19819.2
2017-Jun-19 17:13N 58°50' E 004°18'419.3
2017-Jun-19 17:00N 58°46' E 004°19'1117.4
2017-Jun-19 16:24N 58°35' E 004°23'717.5
2017-Jun-19 16:00N 58°29' E 004°26'917.2
2017-Jun-19 15:28N 58°20' E 004°30'816.6
2017-Jun-19 15:00N 58°12' E 004°33'918.0
2017-Jun-19 14:29N 58°03' E 004°37'1818.5
2017-Jun-19 13:30N 57°45' E 004°44'918.6
2017-Jun-19 13:00N 57°36' E 004°50'1218.3
2017-Jun-19 12:20N 57°24' E 004°52'5218.2
2017-Jun-19 09:28N 56°33' E 005°12'1018.0
2017-Jun-19 08:56N 56°23' E 005°14'818.0
2017-Jun-19 08:29N 56°16' E 005°15'918.0
2017-Jun-19 08:00N 56°07' E 005°16'918.0
2017-Jun-19 07:29N 55°57' E 005°17'918.1
2017-Jun-19 06:59N 55°48' E 005°19'918.3
2017-Jun-19 06:30N 55°40' E 005°21'918.0
2017-Jun-19 06:00N 55°31' E 005°23'1118.0
2017-Jun-19 05:24N 55°20' E 005°20'717.5
2017-Jun-19 04:59N 55°13' E 005°18'7818.0
2017-Jun-19 00:37N 53°55' E 005°00'218.1
2017-Jun-19 00:29N 53°53' E 004°59'918.1
2017-Jun-19 00:01N 53°45' E 004°53'918.1
2017-Jun-18 23:30N 53°36' E 004°50'918.6
2017-Jun-18 23:00N 53°28' E 004°44'918.8
2017-Jun-18 22:30N 53°19' E 004°37'918.8
2017-Jun-18 22:01N 53°10' E 004°31'918.4
2017-Jun-18 21:30N 53°03' E 004°23'918.0
2017-Jun-18 21:00N 52°55' E 004°16'917.9
2017-Jun-18 20:30N 52°47' E 004°08'816.0
2017-Jun-18 20:01N 52°39' E 004°13'817.0
2017-Jun-18 19:31N 52°33' E 004°22'611.6
2017-Jun-18 19:00N 52°28' E 004°28'510.1
2017-Jun-18 18:31N 52°28' E 004°36'0 0.4
2017-Jun-18 18:01N 52°28' E 004°36'0 0.9
2017-Jun-18 17:31N 52°28' E 004°37'3 6.6
2017-Jun-18 17:00N 52°27' E 004°42'4 7.7
2017-Jun-18 16:31N 52°25' E 004°48'3 5.8
2017-Jun-18 16:01N 52°24' E 004°53'2 4.3
2017-Jun-18 15:30N 52°23' E 004°55'0 0.0
2017-Jun-18 15:00N 52°23' E 004°55'0 0.0
2017-Jun-18 14:00N 52°23' E 004°55'0 0.0
2017-Jun-18 13:30N 52°23' E 004°55'0 0.0
2017-Jun-18 13:00N 52°23' E 004°55'0 0.0
2017-Jun-18 12:30N 52°23' E 004°55'0 0.0
2017-Jun-18 12:00N 52°23' E 004°55'0 0.0
2017-Jun-18 11:30N 52°23' E 004°55'0 0.0
2017-Jun-18 11:00N 52°23' E 004°55'0 0.0
2017-Jun-18 10:30N 52°23' E 004°55'0 0.0
2017-Jun-18 10:00N 52°23' E 004°55'0 0.0
2017-Jun-18 09:30N 52°23' E 004°55'0 0.0
2017-Jun-18 09:00N 52°23' E 004°55'0 0.0
2017-Jun-18 08:30N 52°23' E 004°55'0 0.0
2017-Jun-18 08:00N 52°23' E 004°55'0 0.0
2017-Jun-18 07:30N 52°23' E 004°55'0 0.0
2017-Jun-18 07:00N 52°23' E 004°55'0 0.0
2017-Jun-18 06:30N 52°23' E 004°55'0 0.0
2017-Jun-18 06:00N 52°23' E 004°55'0 0.0
2017-Jun-18 05:30N 52°23' E 004°55'0 0.4
2017-Jun-18 04:31N 52°23' E 004°55'2 4.8
2017-Jun-18 04:01N 52°24' E 004°52'4 7.7
2017-Jun-18 03:30N 52°26' E 004°46'4 7.5
2017-Jun-18 03:00N 52°27' E 004°41'3 5.5
2017-Jun-18 02:31N 52°28' E 004°37'1 2.4
2017-Jun-18 02:01N 52°28' E 004°35'612.3
2017-Jun-18 01:30N 52°29' E 004°25'612.4
2017-Jun-18 01:00N 52°30' E 004°15'713.2
2017-Jun-18 00:30N 52°34' E 004°06'918.2
2017-Jun-18 00:00N 52°42' E 004°01'917.9
2017-Jun-17 23:30N 52°51' E 003°58'918.0
2017-Jun-17 23:00N 52°59' E 004°05'918.7
2017-Jun-17 22:30N 53°05' E 004°17'817.1
2017-Jun-17 22:00N 53°12' E 004°25'816.4
2017-Jun-17 21:30N 53°20' E 004°31'816.5
2017-Jun-17 21:00N 53°27' E 004°37'816.3
2017-Jun-17 20:30N 53°31' E 004°49'816.6
2017-Jun-17 20:00N 53°34' E 005°02'1019.0
2017-Jun-17 19:30N 53°38' E 005°17'1020.4
2017-Jun-17 19:00N 53°41' E 005°33'1620.4
2017-Jun-17 18:12N 53°45' E 005°60'920.3
2017-Jun-17 17:46N 53°48' E 006°14'620.1
2017-Jun-17 17:28N 53°50' E 006°24'1019.8
2017-Jun-17 16:57N 53°53' E 006°40'1619.3
2017-Jun-17 16:08N 53°56' E 007°07'2715.7
2017-Jun-17 14:26N 53°52' E 007°52'1313.8
2017-Jun-17 13:31N 53°46' E 008°11'815.5
2017-Jun-17 13:00N 53°41' E 008°21'714.6
2017-Jun-17 12:30N 53°36' E 008°30'3 6.7
2017-Jun-17 12:01N 53°34' E 008°33'0 0.0
2017-Jun-17 11:29N 53°34' E 008°33'0 0.0
2017-Jun-17 10:59N 53°34' E 008°33'0 0.0
2017-Jun-17 10:29N 53°34' E 008°33'0 0.0
2017-Jun-17 09:59N 53°34' E 008°33'0 0.0
2017-Jun-17 09:29N 53°34' E 008°33'0 0.0
2017-Jun-17 08:59N 53°34' E 008°33'0 0.0
2017-Jun-17 08:29N 53°34' E 008°33'0 0.0
2017-Jun-17 07:59N 53°34' E 008°33'0 0.0
2017-Jun-17 07:29N 53°34' E 008°33'0 0.0
2017-Jun-17 06:59N 53°34' E 008°33'0 0.0
2017-Jun-17 06:29N 53°34' E 008°33'0 0.0
2017-Jun-17 06:00N 53°34' E 008°33'0 0.2
2017-Jun-17 05:30N 53°34' E 008°33'2 4.0
2017-Jun-17 05:00N 53°35' E 008°31'510.9
2017-Jun-17 04:30N 53°39' E 008°25'713.2
2017-Jun-17 04:00N 53°43' E 008°16'715.0
2017-Jun-17 03:31N 53°49' E 008°07'714.6
2017-Jun-17 03:00N 53°52' E 007°56'5213.1
2017-Jun-16 23:03N 54°35' E 007°07'113.4
2017-Jun-16 22:58N 54°36' E 007°06'613.3
2017-Jun-16 22:30N 54°40' E 006°60'612.9
2017-Jun-16 22:01N 54°46' E 006°53'612.6
2017-Jun-16 21:30N 54°51' E 006°46'712.3
2017-Jun-16 20:58N 54°56' E 006°39'612.1
2017-Jun-16 20:30N 55°01' E 006°36'612.1
2017-Jun-16 20:00N 55°07' E 006°33'612.0
2017-Jun-16 19:31N 55°13' E 006°30'611.8
2017-Jun-16 19:01N 55°18' E 006°27'611.6
2017-Jun-16 18:30N 55°24' E 006°24'611.6
2017-Jun-16 18:01N 55°29' E 006°21'711.6
2017-Jun-16 17:27N 55°36' E 006°17'16512.9
2017-Jun-16 04:38N 58°11' E 004°37'213.6
2017-Jun-16 04:30N 58°13' E 004°36'713.6
2017-Jun-16 04:00N 58°19' E 004°31'713.6
2017-Jun-16 03:30N 58°26' E 004°27'713.7
2017-Jun-16 03:00N 58°32' E 004°22'813.6
2017-Jun-16 02:27N 58°39' E 004°17'713.5
2017-Jun-16 01:57N 58°45' E 004°12'613.5
2017-Jun-16 01:29N 58°51' E 004°08'10414.2
2017-Jun-15 18:08N 60°35' E 004°22'216.2
2017-Jun-15 18:00N 60°37' E 004°24'815.8
2017-Jun-15 17:30N 60°44' E 004°32'714.4
2017-Jun-15 17:00N 60°43' E 004°46'815.3
2017-Jun-15 16:30N 60°36' E 004°54'817.3
2017-Jun-15 16:01N 60°28' E 005°00'814.6
2017-Jun-15 15:30N 60°23' E 005°11'4 8.0
2017-Jun-15 15:00N 60°24' E 005°19'0 0.0
2017-Jun-15 14:00N 60°24' E 005°19'0 0.0
2017-Jun-15 13:30N 60°24' E 005°19'0 0.0
2017-Jun-15 13:00N 60°24' E 005°19'0 0.0
2017-Jun-15 12:30N 60°24' E 005°19'0 0.0
2017-Jun-15 12:00N 60°24' E 005°19'0 0.0
2017-Jun-15 11:30N 60°24' E 005°19'0 0.0
2017-Jun-15 11:00N 60°24' E 005°19'0 0.0
2017-Jun-15 10:30N 60°24' E 005°19'0 0.0
2017-Jun-15 10:00N 60°24' E 005°19'0 0.0
2017-Jun-15 09:30N 60°24' E 005°19'0 0.0
2017-Jun-15 09:00N 60°24' E 005°19'0 0.0
2017-Jun-15 08:30N 60°24' E 005°19'0 0.0
2017-Jun-15 08:00N 60°24' E 005°19'0 0.0
2017-Jun-15 07:30N 60°24' E 005°19'0 0.0
2017-Jun-15 07:00N 60°24' E 005°19'0 0.0
2017-Jun-15 06:30N 60°24' E 005°19'0 0.0
2017-Jun-15 06:00N 60°24' E 005°19'0 0.0
2017-Jun-15 05:30N 60°24' E 005°19'3 5.3
2017-Jun-15 05:00N 60°24' E 005°14'510.4
2017-Jun-15 04:30N 60°25' E 005°03'816.5
2017-Jun-15 04:00N 60°32' E 004°56'916.9
2017-Jun-15 03:30N 60°40' E 004°50'714.3
2017-Jun-15 03:00N 60°45' E 004°38'612.5
2017-Jun-15 02:30N 60°48' E 004°27'5610.4
2017-Jun-14 21:05N 61°44' E 004°23'111.4
2017-Jun-14 21:00N 61°45' E 004°24'611.6
2017-Jun-14 20:30N 61°50' E 004°30'612.0
2017-Jun-14 20:00N 61°54' E 004°37'611.4
2017-Jun-14 19:30N 61°59' E 004°45'510.7
2017-Jun-14 19:00N 61°58' E 004°57'713.2
2017-Jun-14 18:30N 61°54' E 005°09'714.7
2017-Jun-14 18:00N 61°55' E 005°24'816.1
2017-Jun-14 17:30N 61°54' E 005°40'5 0.3
2017-Jun-14 02:28N 61°51' E 005°49'816.7
2017-Jun-14 02:00N 61°55' E 005°34'917.9
2017-Jun-14 01:30N 61°54' E 005°15'815.6
2017-Jun-14 01:00N 61°56' E 004°59'713.6
2017-Jun-14 00:30N 62°01' E 004°48'713.9
2017-Jun-14 00:00N 62°07' E 004°42'714.2
2017-Jun-13 23:30N 62°14' E 004°38'2313.8
2017-Jun-13 21:50N 62°33' E 005°04'617.4
2017-Jun-13 21:30N 62°37' E 005°15'917.2
2017-Jun-13 21:00N 62°42' E 005°30'817.0
2017-Jun-13 20:30N 62°46' E 005°45'816.9
2017-Jun-13 20:00N 62°51' E 006°00'816.6
2017-Jun-13 19:30N 62°56' E 006°16'816.7
2017-Jun-13 19:00N 62°57' E 006°34'815.7
2017-Jun-13 18:30N 62°54' E 006°51'612.7
2017-Jun-13 18:00N 62°49' E 006°58'815.5
2017-Jun-13 17:29N 62°42' E 007°03'817.5
2017-Jun-13 17:00N 62°38' E 007°19'914.9
2017-Jun-13 16:22N 62°34' E 007°37'2 3.0
2017-Jun-13 15:42N 62°34' E 007°42'0 0.0
2017-Jun-13 15:12N 62°34' E 007°42'0 0.0
2017-Jun-13 14:00N 62°34' E 007°42'0 0.0
2017-Jun-13 09:24N 62°34' E 007°42'0 0.0
2017-Jun-13 05:32N 62°34' E 007°42'0 0.0
2017-Jun-13 05:30N 62°34' E 007°42'2 4.7
2017-Jun-13 05:00N 62°33' E 007°37'713.8
2017-Jun-13 04:29N 62°36' E 007°23'817.2
2017-Jun-13 04:00N 62°40' E 007°07'815.4
2017-Jun-13 03:30N 62°47' E 006°57'612.2
2017-Jun-13 03:00N 62°53' E 006°56'713.7
2017-Jun-13 02:30N 62°57' E 006°43'713.6
2017-Jun-13 02:00N 62°58' E 006°29'713.9
2017-Jun-13 01:30N 62°58' E 006°14'2712.6
2017-Jun-12 23:24N 62°44' E 005°24'513.5
2017-Jun-12 23:00N 62°39' E 005°19'612.9
2017-Jun-12 22:30N 62°34' E 005°25'714.5
2017-Jun-12 22:00N 62°31' E 005°40'816.1
2017-Jun-12 21:30N 62°27' E 005°56'815.6
2017-Jun-12 21:00N 62°23' E 006°09'816.7
2017-Jun-12 20:31N 62°25' E 006°26'816.8
2017-Jun-12 20:00N 62°27' E 006°44'714.2
2017-Jun-12 19:30N 62°23' E 006°55'816.0
2017-Jun-12 19:00N 62°15' E 007°01'  
Track history (hours):
 
Tides and Currents Weather Stations Pressure Air Temp Water Temp Dewpoint Dewpoint Depression Visibility Wind Speed Wind Dir Waves Ship Positions

Costa Magica

Last reported at 2017-Jun-22 18:39 UTC. Time now 2017-Jun-25 08:39 UTC.
Position N 68°18' E 012°21'.

Type: Ship. MMSI: 247113300.

Date/timePositionNaut miles runAvg speedWind from/ knotsBaromVisibWave heightAir tempDewpointWater temp
2017-Jun-22 18:39N 68°18' E 012°21'318.2
2017-Jun-22 18:30N 68°15' E 012°20'918.1
2017-Jun-22 18:00N 68°06' E 012°18'917.5
2017-Jun-22 17:30N 67°58' E 012°26'918.5
2017-Jun-22 17:00N 67°50' E 012°41'815.6
2017-Jun-22 16:30N 67°50' E 013°01'918.5
2017-Jun-22 16:00N 67°56' E 013°20'917.5
2017-Jun-22 15:30N 68°03' E 013°35'4 7.9
2017-Jun-22 15:00N 68°07' E 013°36'0 0.1
2017-Jun-22 13:55N 68°07' E 013°36'0 0.0
2017-Jun-22 13:25N 68°07' E 013°36'0 0.0
2017-Jun-22 12:58N 68°07' E 013°36'0 0.0
2017-Jun-22 12:22N 68°07' E 013°36'0 0.0
2017-Jun-22 12:01N 68°07' E 013°36'0 0.0
2017-Jun-22 11:30N 68°07' E 013°36'0 0.0
2017-Jun-22 11:00N 68°07' E 013°36'0 0.0
2017-Jun-22 10:31N 68°07' E 013°36'0 0.0
2017-Jun-22 10:00N 68°07' E 013°36'0 0.1
2017-Jun-22 09:30N 68°07' E 013°36'0 0.0
2017-Jun-22 09:00N 68°07' E 013°36'0 0.0
2017-Jun-22 08:29N 68°07' E 013°36'0 0.0
2017-Jun-22 08:00N 68°07' E 013°36'0 0.0
2017-Jun-22 07:30N 68°07' E 013°36'0 0.1
2017-Jun-22 06:59N 68°07' E 013°36'0 0.1
2017-Jun-22 06:30N 68°07' E 013°36'0 0.2
2017-Jun-22 06:00N 68°07' E 013°36'0 0.1
2017-Jun-22 05:30N 68°07' E 013°36'0 0.1
2017-Jun-22 05:00N 68°07' E 013°36'0 0.1
2017-Jun-22 04:30N 68°07' E 013°36'4 8.9
2017-Jun-22 04:00N 68°02' E 013°35'5 8.9
2017-Jun-22 03:30N 67°58' E 013°32'4 7.5
2017-Jun-22 03:00N 67°54' E 013°30'510.8
2017-Jun-22 02:30N 67°49' E 013°25'511.2
2017-Jun-22 02:00N 67°45' E 013°17'611.4
2017-Jun-22 01:30N 67°40' E 013°08'611.6
2017-Jun-22 01:00N 67°35' E 012°59'611.5
2017-Jun-22 00:30N 67°30' E 012°50'611.3
2017-Jun-22 00:00N 67°26' E 012°41'4010.5
2017-Jun-21 20:12N 66°53' E 011°41'310.3
2017-Jun-21 19:52N 66°51' E 011°37'410.0
2017-Jun-21 19:30N 66°47' E 011°32'5 9.6
2017-Jun-21 19:01N 66°43' E 011°26'5 9.6
2017-Jun-21 18:30N 66°39' E 011°20'5 9.7
2017-Jun-21 18:00N 66°35' E 011°13'5 9.8
2017-Jun-21 17:28N 66°30' E 011°07'5 9.8
2017-Jun-21 16:58N 66°26' E 011°00'18410.7
2017-Jun-20 23:44N 63°45' E 007°31'411.0
2017-Jun-20 23:20N 63°41' E 007°28'411.1
2017-Jun-20 22:59N 63°37' E 007°27'511.2
2017-Jun-20 22:30N 63°32' E 007°29'611.4
2017-Jun-20 22:01N 63°26' E 007°31'611.3
2017-Jun-20 21:30N 63°21' E 007°33'510.6
2017-Jun-20 21:00N 63°16' E 007°38'2 3.3
2017-Jun-20 20:30N 63°14' E 007°39'713.7
2017-Jun-20 20:00N 63°13' E 007°24'917.9
2017-Jun-20 19:30N 63°09' E 007°06'917.1
2017-Jun-20 19:00N 63°03' E 006°52'815.9
2017-Jun-20 18:30N 62°55' E 006°50'713.6
2017-Jun-20 18:01N 62°49' E 006°58'712.8
2017-Jun-20 17:30N 62°43' E 007°00'510.2
2017-Jun-20 17:00N 62°44' E 007°11'0 0.1
2017-Jun-20 16:30N 62°44' E 007°11'0 0.0
2017-Jun-20 16:00N 62°44' E 007°11'0 0.0
2017-Jun-20 15:30N 62°44' E 007°11'0 0.0
2017-Jun-20 15:00N 62°44' E 007°11'0 0.0
2017-Jun-20 14:30N 62°44' E 007°11'0 0.0
2017-Jun-20 13:30N 62°44' E 007°11'0 0.0
2017-Jun-20 13:00N 62°44' E 007°11'0 0.0
2017-Jun-20 12:30N 62°44' E 007°11'0 0.0
2017-Jun-20 12:00N 62°44' E 007°11'0 0.0
2017-Jun-20 11:30N 62°44' E 007°11'0 0.0
2017-Jun-20 11:00N 62°44' E 007°11'0 0.0
2017-Jun-20 10:30N 62°44' E 007°11'2 4.6
2017-Jun-20 10:00N 62°44' E 007°06'815.0
2017-Jun-20 09:30N 62°41' E 006°51'917.7
2017-Jun-20 09:00N 62°38' E 006°33'815.7
2017-Jun-20 08:30N 62°37' E 006°16'4 7.7
2017-Jun-20 08:00N 62°37' E 006°08'713.2
2017-Jun-20 07:30N 62°30' E 006°09'510.0
2017-Jun-20 07:00N 62°27' E 006°00'5 9.5
2017-Jun-20 06:30N 62°28' E 005°50'612.7
2017-Jun-20 06:00N 62°30' E 005°37'713.6
2017-Jun-20 05:30N 62°28' E 005°23'713.6
2017-Jun-20 05:00N 62°24' E 005°11'815.8
2017-Jun-20 04:30N 62°19' E 004°58'918.1
2017-Jun-20 04:00N 62°13' E 004°43'918.0
2017-Jun-20 03:30N 62°07' E 004°29'19819.2
2017-Jun-19 17:13N 58°50' E 004°18'419.3
2017-Jun-19 17:00N 58°46' E 004°19'1117.4
2017-Jun-19 16:24N 58°35' E 004°23'717.5
2017-Jun-19 16:00N 58°29' E 004°26'917.2
2017-Jun-19 15:28N 58°20' E 004°30'816.6
2017-Jun-19 15:00N 58°12' E 004°33'918.0
2017-Jun-19 14:29N 58°03' E 004°37'1818.5
2017-Jun-19 13:30N 57°45' E 004°44'918.6
2017-Jun-19 13:00N 57°36' E 004°50'1218.3
2017-Jun-19 12:20N 57°24' E 004°52'5218.2
2017-Jun-19 09:28N 56°33' E 005°12'1018.0
2017-Jun-19 08:56N 56°23' E 005°14'818.0
2017-Jun-19 08:29N 56°16' E 005°15'918.0
2017-Jun-19 08:00N 56°07' E 005°16'918.0
2017-Jun-19 07:29N 55°57' E 005°17'918.1
2017-Jun-19 06:59N 55°48' E 005°19'918.3
2017-Jun-19 06:30N 55°40' E 005°21'918.0
2017-Jun-19 06:00N 55°31' E 005°23'1118.0
2017-Jun-19 05:24N 55°20' E 005°20'717.5
2017-Jun-19 04:59N 55°13' E 005°18'7818.0
2017-Jun-19 00:37N 53°55' E 005°00'218.1
2017-Jun-19 00:29N 53°53' E 004°59'918.1
2017-Jun-19 00:01N 53°45' E 004°53'918.1
2017-Jun-18 23:30N 53°36' E 004°50'918.6
2017-Jun-18 23:00N 53°28' E 004°44'918.8
2017-Jun-18 22:30N 53°19' E 004°37'918.8
2017-Jun-18 22:01N 53°10' E 004°31'918.4
2017-Jun-18 21:30N 53°03' E 004°23'918.0
2017-Jun-18 21:00N 52°55' E 004°16'917.9
2017-Jun-18 20:30N 52°47' E 004°08'816.0
2017-Jun-18 20:01N 52°39' E 004°13'817.0
2017-Jun-18 19:31N 52°33' E 004°22'611.6
2017-Jun-18 19:00N 52°28' E 004°28'510.1
2017-Jun-18 18:31N 52°28' E 004°36'0 0.4
2017-Jun-18 18:01N 52°28' E 004°36'0 0.9
2017-Jun-18 17:31N 52°28' E 004°37'3 6.6
2017-Jun-18 17:00N 52°27' E 004°42'4 7.7
2017-Jun-18 16:31N 52°25' E 004°48'3 5.8
2017-Jun-18 16:01N 52°24' E 004°53'2 4.3
2017-Jun-18 15:30N 52°23' E 004°55'0 0.0
2017-Jun-18 15:00N 52°23' E 004°55'0 0.0
2017-Jun-18 14:00N 52°23' E 004°55'0 0.0
2017-Jun-18 13:30N 52°23' E 004°55'0 0.0
2017-Jun-18 13:00N 52°23' E 004°55'0 0.0
2017-Jun-18 12:30N 52°23' E 004°55'0 0.0
2017-Jun-18 12:00N 52°23' E 004°55'0 0.0
2017-Jun-18 11:30N 52°23' E 004°55'0 0.0
2017-Jun-18 11:00N 52°23' E 004°55'0 0.0
2017-Jun-18 10:30N 52°23' E 004°55'0 0.0
2017-Jun-18 10:00N 52°23' E 004°55'0 0.0
2017-Jun-18 09:30N 52°23' E 004°55'0 0.0
2017-Jun-18 09:00N 52°23' E 004°55'0 0.0
2017-Jun-18 08:30N 52°23' E 004°55'0 0.0
2017-Jun-18 08:00N 52°23' E 004°55'0 0.0
2017-Jun-18 07:30N 52°23' E 004°55'0 0.0
2017-Jun-18 07:00N 52°23' E 004°55'0 0.0
2017-Jun-18 06:30N 52°23' E 004°55'0 0.0
2017-Jun-18 06:00N 52°23' E 004°55'0 0.0
2017-Jun-18 05:30N 52°23' E 004°55'0 0.4
2017-Jun-18 04:31N 52°23' E 004°55'2 4.8
2017-Jun-18 04:01N 52°24' E 004°52'4 7.7
2017-Jun-18 03:30N 52°26' E 004°46'4 7.5
2017-Jun-18 03:00N 52°27' E 004°41'3 5.5
2017-Jun-18 02:31N 52°28' E 004°37'1 2.4
2017-Jun-18 02:01N 52°28' E 004°35'612.3
2017-Jun-18 01:30N 52°29' E 004°25'612.4
2017-Jun-18 01:00N 52°30' E 004°15'713.2
2017-Jun-18 00:30N 52°34' E 004°06'918.2
2017-Jun-18 00:00N 52°42' E 004°01'917.9
2017-Jun-17 23:30N 52°51' E 003°58'918.0
2017-Jun-17 23:00N 52°59' E 004°05'918.7
2017-Jun-17 22:30N 53°05' E 004°17'817.1
2017-Jun-17 22:00N 53°12' E 004°25'816.4
2017-Jun-17 21:30N 53°20' E 004°31'816.5
2017-Jun-17 21:00N 53°27' E 004°37'816.3
2017-Jun-17 20:30N 53°31' E 004°49'816.6
2017-Jun-17 20:00N 53°34' E 005°02'1019.0
2017-Jun-17 19:30N 53°38' E 005°17'1020.4
2017-Jun-17 19:00N 53°41' E 005°33'1620.4
2017-Jun-17 18:12N 53°45' E 005°60'920.3
2017-Jun-17 17:46N 53°48' E 006°14'620.1
2017-Jun-17 17:28N 53°50' E 006°24'1019.8
2017-Jun-17 16:57N 53°53' E 006°40'1619.3
2017-Jun-17 16:08N 53°56' E 007°07'2715.7
2017-Jun-17 14:26N 53°52' E 007°52'1313.8
2017-Jun-17 13:31N 53°46' E 008°11'815.5
2017-Jun-17 13:00N 53°41' E 008°21'714.6
2017-Jun-17 12:30N 53°36' E 008°30'3 6.7
2017-Jun-17 12:01N 53°34' E 008°33'0 0.0
2017-Jun-17 11:29N 53°34' E 008°33'0 0.0
2017-Jun-17 10:59N 53°34' E 008°33'0 0.0
2017-Jun-17 10:29N 53°34' E 008°33'0 0.0
2017-Jun-17 09:59N 53°34' E 008°33'0 0.0
2017-Jun-17 09:29N 53°34' E 008°33'0 0.0
2017-Jun-17 08:59N 53°34' E 008°33'0 0.0
2017-Jun-17 08:29N 53°34' E 008°33'0 0.0
2017-Jun-17 07:59N 53°34' E 008°33'0 0.0
2017-Jun-17 07:29N 53°34' E 008°33'0 0.0
2017-Jun-17 06:59N 53°34' E 008°33'0 0.0
2017-Jun-17 06:29N 53°34' E 008°33'0 0.0
2017-Jun-17 06:00N 53°34' E 008°33'0 0.2
2017-Jun-17 05:30N 53°34' E 008°33'2 4.0
2017-Jun-17 05:00N 53°35' E 008°31'510.9
2017-Jun-17 04:30N 53°39' E 008°25'713.2
2017-Jun-17 04:00N 53°43' E 008°16'715.0
2017-Jun-17 03:31N 53°49' E 008°07'714.6
2017-Jun-17 03:00N 53°52' E 007°56'5213.1
2017-Jun-16 23:03N 54°35' E 007°07'113.4
2017-Jun-16 22:58N 54°36' E 007°06'613.3
2017-Jun-16 22:30N 54°40' E 006°60'612.9
2017-Jun-16 22:01N 54°46' E 006°53'612.6
2017-Jun-16 21:30N 54°51' E 006°46'712.3
2017-Jun-16 20:58N 54°56' E 006°39'612.1
2017-Jun-16 20:30N 55°01' E 006°36'612.1
2017-Jun-16 20:00N 55°07' E 006°33'612.0
2017-Jun-16 19:31N 55°13' E 006°30'611.8
2017-Jun-16 19:01N 55°18' E 006°27'611.6
2017-Jun-16 18:30N 55°24' E 006°24'611.6
2017-Jun-16 18:01N 55°29' E 006°21'711.6
2017-Jun-16 17:27N 55°36' E 006°17'16512.9
2017-Jun-16 04:38N 58°11' E 004°37'213.6
2017-Jun-16 04:30N 58°13' E 004°36'713.6
2017-Jun-16 04:00N 58°19' E 004°31'713.6
2017-Jun-16 03:30N 58°26' E 004°27'713.7
2017-Jun-16 03:00N 58°32' E 004°22'813.6
2017-Jun-16 02:27N 58°39' E 004°17'713.5
2017-Jun-16 01:57N 58°45' E 004°12'613.5
2017-Jun-16 01:29N 58°51' E 004°08'10414.2
2017-Jun-15 18:08N 60°35' E 004°22'216.2
2017-Jun-15 18:00N 60°37' E 004°24'815.8
2017-Jun-15 17:30N 60°44' E 004°32'714.4
2017-Jun-15 17:00N 60°43' E 004°46'815.3
2017-Jun-15 16:30N 60°36' E 004°54'817.3
2017-Jun-15 16:01N 60°28' E 005°00'814.6
2017-Jun-15 15:30N 60°23' E 005°11'4 8.0
2017-Jun-15 15:00N 60°24' E 005°19'0 0.0
2017-Jun-15 14:00N 60°24' E 005°19'0 0.0
2017-Jun-15 13:30N 60°24' E 005°19'0 0.0
2017-Jun-15 13:00N 60°24' E 005°19'0 0.0
2017-Jun-15 12:30N 60°24' E 005°19'0 0.0
2017-Jun-15 12:00N 60°24' E 005°19'0 0.0
2017-Jun-15 11:30N 60°24' E 005°19'0 0.0
2017-Jun-15 11:00N 60°24' E 005°19'0 0.0
2017-Jun-15 10:30N 60°24' E 005°19'0 0.0
2017-Jun-15 10:00N 60°24' E 005°19'0 0.0
2017-Jun-15 09:30N 60°24' E 005°19'0 0.0
2017-Jun-15 09:00N 60°24' E 005°19'0 0.0
2017-Jun-15 08:30N 60°24' E 005°19'0 0.0
2017-Jun-15 08:00N 60°24' E 005°19'0 0.0
2017-Jun-15 07:30N 60°24' E 005°19'0 0.0
2017-Jun-15 07:00N 60°24' E 005°19'0 0.0
2017-Jun-15 06:30N 60°24' E 005°19'0 0.0
2017-Jun-15 06:00N 60°24' E 005°19'0 0.0
2017-Jun-15 05:30N 60°24' E 005°19'3 5.3
2017-Jun-15 05:00N 60°24' E 005°14'510.4
2017-Jun-15 04:30N 60°25' E 005°03'816.5
2017-Jun-15 04:00N 60°32' E 004°56'916.9
2017-Jun-15 03:30N 60°40' E 004°50'714.3
2017-Jun-15 03:00N 60°45' E 004°38'612.5
2017-Jun-15 02:30N 60°48' E 004°27'5610.4
2017-Jun-14 21:05N 61°44' E 004°23'111.4
2017-Jun-14 21:00N 61°45' E 004°24'611.6
2017-Jun-14 20:30N 61°50' E 004°30'612.0
2017-Jun-14 20:00N 61°54' E 004°37'611.4
2017-Jun-14 19:30N 61°59' E 004°45'510.7
2017-Jun-14 19:00N 61°58' E 004°57'713.2
2017-Jun-14 18:30N 61°54' E 005°09'714.7
2017-Jun-14 18:00N 61°55' E 005°24'816.1
2017-Jun-14 17:30N 61°54' E 005°40'5 0.3
2017-Jun-14 02:28N 61°51' E 005°49'816.7
2017-Jun-14 02:00N 61°55' E 005°34'917.9
2017-Jun-14 01:30N 61°54' E 005°15'815.6
2017-Jun-14 01:00N 61°56' E 004°59'713.6
2017-Jun-14 00:30N 62°01' E 004°48'713.9
2017-Jun-14 00:00N 62°07' E 004°42'714.2
2017-Jun-13 23:30N 62°14' E 004°38'2313.8
2017-Jun-13 21:50N 62°33' E 005°04'617.4
2017-Jun-13 21:30N 62°37' E 005°15'917.2
2017-Jun-13 21:00N 62°42' E 005°30'817.0
2017-Jun-13 20:30N 62°46' E 005°45'816.9
2017-Jun-13 20:00N 62°51' E 006°00'816.6
2017-Jun-13 19:30N 62°56' E 006°16'816.7
2017-Jun-13 19:00N 62°57' E 006°34'815.7
2017-Jun-13 18:30N 62°54' E 006°51'612.7
2017-Jun-13 18:00N 62°49' E 006°58'815.5
2017-Jun-13 17:29N 62°42' E 007°03'817.5
2017-Jun-13 17:00N 62°38' E 007°19'914.9
2017-Jun-13 16:22N 62°34' E 007°37'2 3.0
2017-Jun-13 15:42N 62°34' E 007°42'0 0.0
2017-Jun-13 15:12N 62°34' E 007°42'0 0.0
2017-Jun-13 14:00N 62°34' E 007°42'0 0.0
2017-Jun-13 09:24N 62°34' E 007°42'0 0.0
2017-Jun-13 05:32N 62°34' E 007°42'0 0.0
2017-Jun-13 05:30N 62°34' E 007°42'2 4.7
2017-Jun-13 05:00N 62°33' E 007°37'713.8
2017-Jun-13 04:29N 62°36' E 007°23'817.2
2017-Jun-13 04:00N 62°40' E 007°07'815.4
2017-Jun-13 03:30N 62°47' E 006°57'612.2
2017-Jun-13 03:00N 62°53' E 006°56'713.7
2017-Jun-13 02:30N 62°57' E 006°43'713.6
2017-Jun-13 02:00N 62°58' E 006°29'713.9
2017-Jun-13 01:30N 62°58' E 006°14'2712.6
2017-Jun-12 23:24N 62°44' E 005°24'513.5
2017-Jun-12 23:00N 62°39' E 005°19'612.9
2017-Jun-12 22:30N 62°34' E 005°25'714.5
2017-Jun-12 22:00N 62°31' E 005°40'816.1
2017-Jun-12 21:30N 62°27' E 005°56'815.6
2017-Jun-12 21:00N 62°23' E 006°09'816.7
2017-Jun-12 20:31N 62°25' E 006°26'816.8
2017-Jun-12 20:00N 62°27' E 006°44'714.2
2017-Jun-12 19:30N 62°23' E 006°55'816.0
2017-Jun-12 19:00N 62°15' E 007°01'  

Dump ship's entire track history